Time;durP1;ratioP1;P1;durP2;ratioP2;P2;SDS_P1;SDS_P2;PMS_P1;PMS_P2;Temp;Humidity;BMP_temperature;BMP_pressure;BME280_temperature;BME280_humidity;BME280_pressure;Samples;Min_cycle;Max_cycle;Signal;HPM_P1;HPM_P2
2023/05/08 00:00:14;;;;;;;21.80;14.88;;;17.80;94.40;;;;;;7380943;19;20038;-76
2023/05/08 00:02:43;;;;;;;22.92;14.82;;;17.80;94.30;;;;;;7379625;19;20006;-76
2023/05/08 00:05:12;;;;;;;21.33;14.13;;;17.90;94.20;;;;;;7381664;19;20046;-76
2023/05/08 00:07:43;;;;;;;22.15;14.60;;;18.00;94.00;;;;;;7403766;19;20031;-75
2023/05/08 00:10:13;;;;;;;23.65;14.55;;;17.90;94.00;;;;;;7382003;19;20065;-76
2023/05/08 00:12:42;;;;;;;23.27;14.50;;;18.00;94.00;;;;;;7380665;19;20244;-76
2023/05/08 00:15:12;;;;;;;24.15;13.95;;;18.00;94.00;;;;;;7379568;19;20390;-76
2023/05/08 00:17:40;;;;;;;23.95;13.85;;;18.00;93.80;;;;;;7380554;19;20074;-76
2023/05/08 00:20:10;;;;;;;20.75;13.77;;;18.00;93.80;;;;;;7380479;19;20007;-75
2023/05/08 00:22:39;;;;;;;24.42;13.27;;;18.00;93.50;;;;;;7403465;19;20035;-76
2023/05/08 00:25:11;;;;;;;23.63;13.82;;;18.00;93.40;;;;;;7381632;19;20019;-76
2023/05/08 00:27:39;;;;;;;26.45;13.00;;;17.90;93.20;;;;;;7382103;19;20006;-76
2023/05/08 00:30:10;;;;;;;22.02;13.20;;;17.90;93.30;;;;;;7380077;19;20332;-76
2023/05/08 00:32:38;;;;;;;23.40;13.77;;;17.90;93.20;;;;;;7380034;19;20026;-76
2023/05/08 00:35:07;;;;;;;22.35;13.63;;;17.80;93.20;;;;;;7379370;19;20003;-76
2023/05/08 00:37:36;;;;;;;23.55;13.18;;;17.80;93.20;;;;;;7399082;19;20011;-76
2023/05/08 00:40:05;;;;;;;20.35;13.98;;;17.80;93.20;;;;;;7378384;19;20023;-75
2023/05/08 00:42:37;;;;;;;22.30;14.30;;;17.80;93.20;;;;;;7376935;19;20055;-75
2023/05/08 00:45:06;;;;;;;21.45;13.90;;;17.80;93.30;;;;;;7378097;19;20428;-75
2023/05/08 00:47:36;;;;;;;23.60;13.60;;;17.80;93.40;;;;;;7379101;19;20086;-76
2023/05/08 00:50:05;;;;;;;26.15;14.13;;;17.80;93.30;;;;;;7389545;19;20007;-76
2023/05/08 00:52:35;;;;;;;21.33;13.35;;;17.70;93.40;;;;;;7400994;19;20062;-76
2023/05/08 00:55:05;;;;;;;22.88;13.23;;;17.70;93.30;;;;;;7378229;19;20046;-76
2023/05/08 00:57:37;;;;;;;21.65;12.50;;;17.70;93.20;;;;;;7378484;19;20390;-75
2023/05/08 01:00:07;;;;;;;25.58;12.70;;;17.60;93.20;;;;;;7378779;19;20007;-75
2023/05/08 01:02:37;;;;;;;20.88;12.90;;;17.60;92.90;;;;;;7378026;19;20067;-75
2023/05/08 01:05:07;;;;;;;20.98;13.88;;;17.60;92.80;;;;;;7379561;19;20006;-75
2023/05/08 01:07:37;;;;;;;25.05;13.55;;;17.60;92.90;;;;;;7403815;19;20010;-75
2023/05/08 01:10:07;;;;;;;20.15;13.77;;;17.60;93.00;;;;;;7385613;19;20002;-74
2023/05/08 01:12:54;;;;;;;21.60;13.70;;;17.50;93.30;;;;;;7386129;19;20023;-74
2023/05/08 01:15:29;;;;;;;24.30;12.85;;;17.50;93.50;;;;;;7387664;19;20393;-74
2023/05/08 01:18:07;;;;;;;22.30;13.18;;;17.50;93.20;;;;;;7387439;19;20007;-75
2023/05/08 01:20:44;;;;;;;28.27;13.48;;;17.50;93.00;;;;;;7386335;19;20264;-75
2023/05/08 01:23:40;;;;;;;20.48;13.60;;;17.50;92.90;;;;;;7383699;19;20368;-75
2023/05/08 01:26:37;;;;;;;26.33;14.50;;;17.50;92.90;;;;;;7386050;19;20023;-75
2023/05/08 01:29:45;;;;;;;23.67;14.55;;;17.40;92.90;;;;;;7385416;19;20014;-75
2023/05/08 01:32:20;;;;;;;24.15;14.65;;;17.40;93.20;;;;;;7385086;19;20551;-75
2023/05/08 01:34:59;;;;;;;26.38;13.77;;;17.40;93.20;;;;;;7406858;19;20015;-75
2023/05/08 01:37:39;;;;;;;30.35;14.93;;;17.40;93.20;;;;;;7384309;19;20239;-75
2023/05/08 01:40:17;;;;;;;28.23;14.50;;;17.40;93.10;;;;;;7384481;19;20014;-75
2023/05/08 01:42:49;;;;;;;21.30;13.43;;;17.40;93.00;;;;;;7382164;19;20007;-76
2023/05/08 01:45:27;;;;;;;26.05;14.00;;;17.40;93.20;;;;;;7384724;19;20010;-75
2023/05/08 01:48:05;;;;;;;25.33;15.57;;;17.40;93.10;;;;;;7383052;19;20015;-75
2023/05/08 01:50:37;;;;;;;31.15;13.80;;;17.40;93.10;;;;;;7384557;19;20394;-75
2023/05/08 01:53:12;;;;;;;21.75;14.15;;;17.40;93.10;;;;;;7384620;19;20066;-75
2023/05/08 01:55:43;;;;;;;26.08;14.60;;;17.30;93.00;;;;;;7406247;19;20024;-75
2023/05/08 01:58:13;;;;;;;31.70;15.52;;;17.30;93.00;;;;;;7383830;19;20414;-75
2023/05/08 02:00:43;;;;;;;26.75;15.25;;;17.30;93.20;;;;;;7383996;19;20271;-75
2023/05/08 02:03:16;;;;;;;22.15;13.50;;;17.20;93.10;;;;;;7383554;19;20003;-74
2023/05/08 02:05:46;;;;;;;22.50;14.70;;;17.20;93.10;;;;;;7384037;19;20013;-74
2023/05/08 02:08:16;;;;;;;22.27;14.32;;;17.30;92.90;;;;;;7382502;19;20007;-74
2023/05/08 02:10:46;;;;;;;28.17;17.10;;;17.30;93.10;;;;;;7405615;19;20011;-75
2023/05/08 02:13:17;;;;;;;35.60;17.67;;;17.30;93.10;;;;;;7383453;19;20422;-74
2023/05/08 02:15:49;;;;;;;33.22;18.17;;;17.30;93.20;;;;;;7384320;19;19999;-75
2023/05/08 02:18:23;;;;;;;29.98;18.33;;;17.30;93.40;;;;;;7384412;19;20006;-75
2023/05/08 02:20:55;;;;;;;32.42;19.20;;;17.30;93.60;;;;;;7384257;19;20452;-75
2023/05/08 02:23:26;;;;;;;34.05;19.40;;;17.40;93.50;;;;;;7383445;19;20019;-75
2023/05/08 02:25:56;;;;;;;36.85;19.50;;;17.30;93.70;;;;;;7406078;19;20023;-75
2023/05/08 02:28:26;;;;;;;49.80;24.23;;;17.40;94.00;;;;;;7384097;19;20241;-75
2023/05/08 02:30:55;;;;;;;43.28;23.83;;;17.30;93.80;;;;;;7383837;19;20248;-75
2023/05/08 02:33:28;;;;;;;42.83;23.27;;;17.40;93.90;;;;;;7383762;19;20024;-74
2023/05/08 02:35:58;;;;;;;53.00;23.88;;;17.20;94.20;;;;;;7382499;19;20015;-74
2023/05/08 02:38:27;;;;;;;62.03;26.58;;;17.00;94.40;;;;;;7384710;19;20023;-75
2023/05/08 02:41:02;;;;;;;62.65;27.55;;;16.90;94.60;;;;;;7405972;19;20078;-75
2023/05/08 02:43:30;;;;;;;51.13;24.27;;;16.80;94.80;;;;;;7381746;19;20007;-75
2023/05/08 02:46:10;;;;;;;54.15;25.63;;;16.80;95.00;;;;;;7382700;19;20024;-75
2023/05/08 02:48:52;;;;;;;53.75;25.70;;;16.60;95.20;;;;;;7382509;19;20006;-74
2023/05/08 02:51:27;;;;;;;53.95;25.73;;;16.70;95.40;;;;;;7383272;19;20304;-75
2023/05/08 02:54:00;;;;;;;57.78;25.73;;;16.70;95.40;;;;;;7381047;19;20009;-74
2023/05/08 02:56:37;;;;;;;57.25;25.83;;;16.80;95.40;;;;;;7382495;19;20244;-74
2023/05/08 02:59:18;;;;;;;97.57;27.90;;;16.80;95.30;;;;;;7382355;19;20015;-74
2023/05/08 03:01:53;;;;;;;96.53;27.90;;;16.80;95.10;;;;;;7403892;19;20007;-74
2023/05/08 03:04:31;;;;;;;68.90;28.20;;;16.60;95.30;;;;;;7381428;19;20004;-75
2023/05/08 03:07:02;;;;;;;57.78;26.55;;;16.70;95.70;;;;;;7380870;19;20373;-75
2023/05/08 03:09:40;;;;;;;69.63;28.43;;;16.60;95.40;;;;;;7382341;19;20014;-74
2023/05/08 03:12:15;;;;;;;77.63;29.20;;;16.60;95.60;;;;;;7383822;19;20082;-75
2023/05/08 03:14:53;;;;;;;68.07;28.25;;;16.60;95.50;;;;;;7381893;19;20018;-74
2023/05/08 03:17:25;;;;;;;62.85;27.45;;;16.70;95.50;;;;;;7382545;19;20071;-75
2023/05/08 03:20:00;;;;;;;85.45;28.38;;;16.50;95.60;;;;;;7402803;19;20476;-75
2023/05/08 03:22:31;;;;;;;61.83;28.55;;;16.50;95.70;;;;;;7380368;19;20373;-75
2023/05/08 03:25:02;;;;;;;97.38;30.70;;;16.40;95.80;;;;;;7380232;19;20483;-75
2023/05/08 03:27:31;;;;;;;67.07;29.23;;;16.40;95.90;;;;;;7381406;19;20043;-75
2023/05/08 03:30:03;;;;;;;67.63;30.10;;;16.30;96.00;;;;;;7379432;19;20258;-75
2023/05/08 03:32:33;;;;;;;;;;;16.10;96.20;;;;;;7382200;19;20003;-75
2023/05/08 03:35:07;;;;;;;62.45;28.20;;;16.30;96.30;;;;;;7400691;19;19907;-75
2023/05/08 03:37:35;;;;;;;69.47;30.35;;;16.20;96.30;;;;;;7380788;19;20002;-74
2023/05/08 03:40:04;;;;;;;66.65;29.02;;;16.30;96.20;;;;;;7380013;19;20007;-74
2023/05/08 03:42:34;;;;;;;56.45;26.63;;;16.40;96.20;;;;;;7380056;19;20010;-75
2023/05/08 03:45:04;;;;;;;57.30;27.63;;;16.50;96.10;;;;;;7380971;19;19999;-75
2023/05/08 03:47:34;;;;;;;68.85;29.38;;;16.60;96.00;;;;;;7380360;19;20019;-75
2023/05/08 03:50:07;;;;;;;60.15;28.20;;;16.50;95.70;;;;;;7400131;19;20425;-75
2023/05/08 03:52:36;;;;;;;63.63;28.15;;;16.50;95.80;;;;;;7380590;19;20071;-75
2023/05/08 03:55:05;;;;;;;58.03;28.77;;;16.70;95.80;;;;;;7379810;19;20019;-74
2023/05/08 03:57:40;;;;;;;60.75;27.90;;;16.70;95.60;;;;;;7379821;19;20011;-75
2023/05/08 04:00:16;;;;;;;52.55;26.05;;;16.80;95.60;;;;;;7380346;19;20007;-75
2023/05/08 04:02:51;;;;;;;56.25;26.05;;;16.90;95.40;;;;;;7379715;19;20011;-75
2023/05/08 04:05:27;;;;;;;60.75;25.90;;;16.70;95.60;;;;;;7380264;19;20023;-75
2023/05/08 04:08:09;;;;;;;63.72;26.77;;;16.70;95.30;;;;;;7403450;19;20014;-75
2023/05/08 04:10:44;;;;;;;68.32;27.65;;;16.80;95.20;;;;;;7379640;19;20026;-75
2023/05/08 04:13:15;;;;;;;67.82;27.00;;;16.80;95.10;;;;;;7378811;19;20282;-76
2023/05/08 04:15:51;;;;;;;59.75;27.65;;;16.70;95.10;;;;;;7379396;19;20223;-75
2023/05/08 04:18:26;;;;;;;65.65;28.27;;;16.80;95.20;;;;;;7379351;19;20019;-75
2023/05/08 04:20:59;;;;;;;61.13;26.35;;;16.90;95.20;;;;;;7380116;19;20006;-75
2023/05/08 04:23:30;;;;;;;60.22;26.95;;;16.90;95.10;;;;;;7379178;19;20007;-75
2023/05/08 04:26:01;;;;;;;65.55;27.80;;;16.90;95.40;;;;;;7401052;19;20007;-75
2023/05/08 04:28:30;;;;;;;55.83;25.80;;;16.90;95.10;;;;;;7379133;19;20011;-75
2023/05/08 04:31:00;;;;;;;58.80;27.08;;;16.90;95.10;;;;;;7378097;19;20023;-75
2023/05/08 04:33:31;;;;;;;67.55;28.73;;;16.90;95.00;;;;;;7378946;19;20007;-75
2023/05/08 04:36:03;;;;;;;58.30;27.23;;;16.90;94.90;;;;;;7377934;19;20027;-75
2023/05/08 04:38:31;;;;;;;53.53;24.83;;;16.90;95.00;;;;;;7378833;19;20015;-75
2023/05/08 04:41:00;;;;;;;60.53;26.48;;;16.90;94.90;;;;;;7396545;19;20027;-74
2023/05/08 04:43:29;;;;;;;60.22;25.75;;;16.80;94.80;;;;;;7377722;19;20476;-74
2023/05/08 04:45:58;;;;;;;63.30;27.05;;;16.80;95.00;;;;;;7378279;19;20074;-74
2023/05/08 04:48:27;;;;;;;64.55;28.55;;;16.90;95.10;;;;;;7378171;19;20350;-75
2023/05/08 04:50:55;;;;;;;59.13;27.10;;;16.70;94.80;;;;;;7377445;19;20002;-75
2023/05/08 04:53:27;;;;;;;69.95;28.95;;;16.80;95.10;;;;;;7379352;19;20102;-74
2023/05/08 04:55:56;;;;;;;64.85;27.50;;;16.70;95.00;;;;;;7400797;19;20392;-74
2023/05/08 04:58:25;;;;;;;65.10;27.90;;;16.70;95.00;;;;;;7380233;19;20013;-74
2023/05/08 05:00:53;;;;;;;55.08;27.13;;;16.50;95.00;;;;;;7380394;19;20007;-74
2023/05/08 05:03:22;;;;;;;63.20;28.45;;;16.60;95.20;;;;;;7378269;19;20015;-74
2023/05/08 05:05:51;;;;;;;64.63;28.85;;;16.60;95.20;;;;;;7378339;19;20062;-74
2023/05/08 05:08:19;;;;;;;68.00;29.83;;;16.50;95.20;;;;;;7380191;19;20062;-74
2023/05/08 05:10:51;;;;;;;62.90;28.75;;;16.50;95.40;;;;;;7400343;19;20010;-74
2023/05/08 05:13:19;;;;;;;61.80;28.67;;;16.60;95.60;;;;;;7377642;19;20006;-74
2023/05/08 05:15:50;;;;;;;59.78;27.00;;;16.70;95.60;;;;;;7377575;19;20036;-74
2023/05/08 05:18:19;;;;;;;58.45;26.98;;;16.80;95.40;;;;;;7378021;19;20092;-74
2023/05/08 05:20:47;;;;;;;64.45;27.85;;;16.90;95.30;;;;;;7376802;19;20009;-74
2023/05/08 05:23:16;;;;;;;58.00;27.25;;;16.90;95.20;;;;;;7376934;19;20032;-74
2023/05/08 05:25:45;;;;;;;54.72;27.73;;;16.90;95.20;;;;;;7397512;19;20014;-74
2023/05/08 05:28:16;;;;;;;47.67;24.38;;;17.00;94.80;;;;;;7376805;19;20102;-74
2023/05/08 05:30:48;;;;;;;51.67;24.30;;;17.00;95.00;;;;;;7377147;19;20362;-74
2023/05/08 05:33:16;;;;;;;52.95;25.58;;;17.00;94.70;;;;;;7377711;19;20020;-74
2023/05/08 05:35:45;;;;;;;57.03;26.60;;;17.00;94.80;;;;;;7377149;19;20413;-74
2023/05/08 05:38:14;;;;;;;50.25;24.10;;;17.00;94.50;;;;;;7377562;19;20039;-74
2023/05/08 05:40:43;;;;;;;51.92;25.10;;;17.00;94.30;;;;;;7398267;19;20014;-75
2023/05/08 05:43:11;;;;;;;48.92;25.08;;;17.00;94.30;;;;;;7375937;19;19998;-74
2023/05/08 05:45:42;;;;;;;45.95;23.38;;;16.90;94.40;;;;;;7376557;19;20066;-74
2023/05/08 05:48:11;;;;;;;55.75;26.23;;;16.90;94.50;;;;;;7376826;19;20271;-74
2023/05/08 05:50:40;;;;;;;52.17;25.73;;;16.90;94.60;;;;;;7376960;19;20480;-74
2023/05/08 05:53:09;;;;;;;49.00;24.20;;;17.00;94.60;;;;;;7379835;19;20011;-74
2023/05/08 05:55:37;;;;;;;46.42;23.60;;;17.10;94.70;;;;;;7406107;19;20007;-74
2023/05/08 05:58:06;;;;;;;51.63;23.55;;;17.20;94.70;;;;;;7383377;19;20070;-74
2023/05/08 06:00:35;;;;;;;41.08;22.23;;;17.20;94.10;;;;;;7383738;19;20275;-74
2023/05/08 06:03:06;;;;;;;49.40;23.00;;;17.10;93.90;;;;;;7383652;19;20066;-75
2023/05/08 06:05:35;;;;;;;;;;;17.00;93.60;;;;;;7385029;19;20006;-75
2023/05/08 06:08:04;;;;;;;41.67;22.10;;;17.10;93.90;;;;;;7407481;19;19982;-75
2023/05/08 06:10:33;;;;;;;55.55;24.73;;;17.10;94.00;;;;;;7383773;19;20348;-75
2023/05/08 06:13:02;;;;;;;53.97;24.90;;;17.00;94.00;;;;;;7383450;19;20060;-75
2023/05/08 06:15:31;;;;;;;46.80;22.75;;;17.00;94.20;;;;;;7385161;19;20003;-75
2023/05/08 06:17:59;;;;;;;41.75;22.90;;;17.10;94.30;;;;;;7382213;19;20003;-76
2023/05/08 06:20:31;;;;;;;44.00;21.52;;;17.20;94.30;;;;;;7383730;19;20010;-75
2023/05/08 06:22:59;;;;;;;39.05;20.33;;;17.30;94.40;;;;;;7404816;19;20039;-75
2023/05/08 06:25:28;;;;;;;42.80;21.25;;;17.40;94.30;;;;;;7382588;19;20019;-75
2023/05/08 06:27:57;;;;;;;43.47;20.85;;;17.50;94.00;;;;;;7382996;19;20362;-75
2023/05/08 06:30:25;;;;;;;40.00;21.42;;;17.50;94.00;;;;;;7382209;19;20382;-75
2023/05/08 06:32:55;;;;;;;42.85;21.70;;;17.50;94.00;;;;;;7382968;19;20016;-75
2023/05/08 06:35:24;;;;;;;39.78;21.38;;;17.50;94.00;;;;;;7381516;19;20057;-75
2023/05/08 06:37:55;;;;;;;43.60;19.85;;;17.60;93.90;;;;;;7404346;19;20156;-75
2023/05/08 06:40:25;;;;;;;37.00;19.63;;;17.60;93.90;;;;;;7382446;19;20006;-75
2023/05/08 06:42:53;;;;;;;37.92;19.92;;;17.60;93.80;;;;;;7382529;19;20102;-75
2023/05/08 06:45:22;;;;;;;37.35;19.88;;;17.70;93.70;;;;;;7381975;19;20055;-75
2023/05/08 06:47:51;;;;;;;43.28;20.65;;;17.70;93.50;;;;;;7383346;19;20035;-75
2023/05/08 06:50:20;;;;;;;44.10;22.15;;;17.60;93.40;;;;;;7382738;19;20007;-75
2023/05/08 06:52:48;;;;;;;38.20;20.52;;;17.60;93.20;;;;;;7404645;19;20013;-75
2023/05/08 06:55:20;;;;;;;37.58;19.83;;;17.50;93.40;;;;;;7381694;19;20299;-76
2023/05/08 06:57:48;;;;;;;;;;;17.50;93.60;;;;;;7382737;19;20033;-76
2023/05/08 07:00:17;;;;;;;32.92;17.83;;;17.50;93.70;;;;;;7381825;19;19907;-76
2023/05/08 07:02:46;;;;;;;36.70;18.50;;;17.60;93.80;;;;;;7382826;19;19998;-76
2023/05/08 07:05:15;;;;;;;34.80;18.23;;;17.50;93.80;;;;;;7379520;19;20015;-76
2023/05/08 07:07:44;;;;;;;39.90;19.45;;;17.60;93.80;;;;;;7402753;19;20413;-75
2023/05/08 07:10:13;;;;;;;33.58;18.02;;;17.70;93.40;;;;;;7382146;19;20384;-75
2023/05/08 07:12:44;;;;;;;35.88;16.85;;;17.70;93.20;;;;;;7382683;19;19999;-75
2023/05/08 07:15:14;;;;;;;31.30;16.67;;;17.50;93.30;;;;;;7382821;19;20003;-75
2023/05/08 07:17:42;;;;;;;33.70;16.83;;;17.50;93.40;;;;;;7382884;19;20007;-75
2023/05/08 07:20:12;;;;;;;35.08;17.17;;;17.40;93.60;;;;;;7382994;19;20345;-75
2023/05/08 07:22:40;;;;;;;33.88;18.05;;;17.40;93.50;;;;;;7403208;19;20017;-75
2023/05/08 07:25:11;;;;;;;37.78;17.58;;;17.20;93.70;;;;;;7379797;19;20076;-75
2023/05/08 07:27:40;;;;;;;30.20;16.48;;;17.20;94.00;;;;;;7381459;19;20026;-75
2023/05/08 07:30:12;;;;;;;28.58;14.98;;;17.30;94.00;;;;;;7381877;19;20002;-75
2023/05/08 07:32:41;;;;;;;25.30;12.95;;;17.40;93.90;;;;;;7384136;19;20074;-75
2023/05/08 07:35:11;;;;;;;26.40;14.35;;;17.40;93.60;;;;;;7381694;19;20007;-75
2023/05/08 07:37:41;;;;;;;22.52;12.98;;;17.60;93.90;;;;;;7403574;19;20054;-76
2023/05/08 07:40:10;;;;;;;27.42;12.75;;;17.70;93.70;;;;;;7380472;19;20445;-73
2023/05/08 07:42:42;;;;;;;24.70;13.43;;;17.80;93.60;;;;;;7380741;19;20003;-74
2023/05/08 07:45:15;;;;;;;23.48;12.18;;;18.00;93.10;;;;;;7380039;19;20007;-74
2023/05/08 07:47:50;;;;;;;22.75;12.50;;;18.00;93.00;;;;;;7379465;19;20042;-74
2023/05/08 07:50:19;;;;;;;22.67;13.23;;;18.10;93.00;;;;;;7380717;19;20006;-74
2023/05/08 07:52:48;;;;;;;25.35;13.20;;;18.20;92.60;;;;;;7401973;19;20413;-74
2023/05/08 07:55:17;;;;;;;21.38;11.90;;;18.30;92.50;;;;;;7379853;19;20003;-74
2023/05/08 07:57:46;;;;;;;25.33;11.93;;;18.20;92.40;;;;;;7380376;19;20066;-75
2023/05/08 08:00:19;;;;;;;22.05;11.43;;;18.30;92.50;;;;;;7380700;19;20074;-74
2023/05/08 08:02:48;;;;;;;18.23;10.65;;;18.40;92.40;;;;;;7381856;19;20003;-74
2023/05/08 08:05:16;;;;;;;19.35;10.15;;;18.40;92.00;;;;;;7379268;19;20071;-74
2023/05/08 08:07:45;;;;;;;17.25;9.63;;;18.30;92.10;;;;;;7401279;19;20099;-74
2023/05/08 08:10:14;;;;;;;19.55;10.05;;;18.30;92.00;;;;;;7379541;19;20011;-74
2023/05/08 08:12:42;;;;;;;17.42;9.20;;;18.30;92.20;;;;;;7379817;19;20014;-75
2023/05/08 08:15:12;;;;;;;17.08;9.48;;;18.30;92.40;;;;;;7379450;19;20054;-74
2023/05/08 08:17:43;;;;;;;16.27;9.60;;;18.40;92.50;;;;;;7379668;19;20002;-75
2023/05/08 08:20:13;;;;;;;18.13;9.27;;;18.40;92.40;;;;;;7379492;19;20306;-74
2023/05/08 08:22:41;;;;;;;14.27;8.00;;;18.50;92.30;;;;;;7401203;19;20011;-75
2023/05/08 08:25:11;;;;;;;19.17;8.43;;;18.50;92.50;;;;;;7377940;19;20020;-75
2023/05/08 08:27:40;;;;;;;14.13;8.55;;;18.60;92.60;;;;;;7378956;19;20425;-75
2023/05/08 08:30:10;;;;;;;12.93;8.25;;;18.80;92.50;;;;;;7379290;19;20283;-75
2023/05/08 08:32:39;;;;;;;15.32;8.45;;;18.80;92.20;;;;;;7378399;19;20070;-76
2023/05/08 08:35:11;;;;;;;17.52;8.80;;;18.90;92.10;;;;;;7376870;19;20216;-74
2023/05/08 08:37:40;;;;;;;17.85;8.18;;;18.70;91.70;;;;;;7401028;19;20011;-74
2023/05/08 08:40:10;;;;;;;17.90;8.13;;;18.80;92.10;;;;;;7378379;19;20079;-74
2023/05/08 08:42:39;;;;;;;12.82;8.63;;;18.60;92.10;;;;;;7379090;19;20341;-74
2023/05/08 08:45:09;;;;;;;19.20;9.57;;;18.70;92.00;;;;;;7378225;19;20370;-74
2023/05/08 08:47:40;;;;;;;16.63;9.23;;;18.70;91.90;;;;;;7377801;19;20006;-74
2023/05/08 08:51:00;;;;;;;21.73;9.30;;;18.70;91.80;;;;;;7401902;19;20289;-82
2023/05/08 08:54:12;;;;;;;22.58;9.60;;;18.60;91.90;;;;;;7287580;19;2004372;-82
2023/05/08 08:57:03;;;;;;;18.92;9.93;;;18.40;92.00;;;;;;7390364;19;20006;-85
2023/05/08 08:59:33;;;;;;;19.83;10.23;;;18.40;92.20;;;;;;7389737;19;20026;-79
2023/05/08 09:02:10;;;;;;;23.38;10.18;;;18.40;92.10;;;;;;7417451;19;20036;-79
2023/05/08 09:04:40;;;;;;;20.15;10.13;;;18.30;92.20;;;;;;7382887;19;20006;-79
2023/05/08 09:07:13;;;;;;;18.45;9.25;;;18.30;92.50;;;;;;7393271;19;20028;-79
2023/05/08 09:09:53;;;;;;;16.48;8.93;;;18.30;92.60;;;;;;7395419;19;20028;-81
2023/05/08 09:12:21;;;;;;;18.48;8.07;;;18.40;92.60;;;;;;7396709;19;20006;-81
2023/05/08 09:14:51;;;;;;;18.10;8.57;;;18.50;92.60;;;;;;7391511;19;20002;-77
2023/05/08 09:17:27;;;;;;;17.70;8.77;;;18.60;92.30;;;;;;7389226;19;20011;-78
2023/05/08 09:19:56;;;;;;;24.65;8.38;;;18.80;92.20;;;;;;7411022;19;20015;-78
2023/05/08 09:22:58;;;;;;;16.30;7.15;;;18.90;91.60;;;;;;7390010;19;20011;-82
2023/05/08 09:25:42;;;;;;;;;;;18.90;91.80;;;;;;7384516;19;20236;-79
2023/05/08 09:28:21;;;;;;;12.77;5.57;;;19.20;91.90;;;;;;7381457;19;20029;-78
2023/05/08 09:30:59;;;;;;;16.92;5.63;;;19.30;91.20;;;;;;7386610;19;20074;-78
2023/05/08 09:33:31;;;;;;;15.95;5.60;;;19.10;90.20;;;;;;7392696;19;20003;-79
2023/05/08 09:36:06;;;;;;;16.95;5.95;;;19.20;90.30;;;;;;7392967;19;20409;-78
2023/05/08 09:38:42;;;;;;;11.38;5.03;;;19.20;90.30;;;;;;7388570;19;20538;-82
2023/05/08 09:41:15;;;;;;;18.10;5.28;;;19.10;90.40;;;;;;7386912;19;20007;-78
2023/05/08 09:44:09;;;;;;;11.77;6.55;;;19.10;90.50;;;;;;7410036;19;20046;-81
2023/05/08 09:46:59;;;;;;;16.90;6.00;;;19.00;90.60;;;;;;7395064;19;20031;-82
2023/05/08 09:49:30;;;;;;;13.23;5.70;;;19.10;90.70;;;;;;7390570;19;20282;-81
2023/05/08 09:51:59;;;;;;;15.95;5.90;;;19.10;90.60;;;;;;7392960;19;20019;-81
2023/05/08 09:54:28;;;;;;;15.60;6.07;;;19.00;90.70;;;;;;7387140;19;20003;-79
2023/05/08 09:57:01;;;;;;;12.63;5.70;;;19.00;90.60;;;;;;7387133;19;20019;-79
2023/05/08 09:59:31;;;;;;;12.32;5.40;;;19.00;90.70;;;;;;7387041;19;20603;-80
2023/05/08 10:02:00;;;;;;;16.33;5.13;;;19.00;90.40;;;;;;7408306;19;20014;-80
2023/05/08 10:04:35;;;;;;;16.42;5.72;;;19.20;90.50;;;;;;7385580;19;20405;-78
2023/05/08 10:07:04;;;;;;;11.85;4.95;;;19.20;90.20;;;;;;7385184;19;20010;-76
2023/05/08 10:09:35;;;;;;;13.23;5.10;;;19.30;90.00;;;;;;7383966;19;20109;-77
2023/05/08 10:12:08;;;;;;;13.02;4.85;;;19.30;89.40;;;;;;7382936;19;19998;-80
2023/05/08 10:14:39;;;;;;;10.20;4.38;;;19.40;89.30;;;;;;7385819;19;20014;-76
2023/05/08 10:17:15;;;;;;;8.55;4.25;;;19.60;89.80;;;;;;7386026;19;20070;-80
2023/05/08 10:19:51;;;;;;;12.05;5.88;;;19.50;90.00;;;;;;7404875;19;20058;-77
2023/05/08 10:22:21;;;;;;;13.80;5.13;;;19.60;89.00;;;;;;7385374;19;20366;-77
2023/05/08 10:24:54;;;;;;;10.85;4.55;;;19.70;89.40;;;;;;7384068;19;20577;-76
2023/05/08 10:27:32;;;;;;;9.07;4.35;;;19.80;89.90;;;;;;7384713;19;20104;-76
2023/05/08 10:30:05;;;;;;;14.50;4.90;;;19.90;90.20;;;;;;7385563;19;20063;-77
2023/05/08 10:32:41;;;;;;;10.73;4.60;;;20.20;88.60;;;;;;7384363;19;19998;-78
2023/05/08 10:35:13;;;;;;;9.80;5.03;;;20.20;87.50;;;;;;7387865;19;20088;-76
2023/05/08 10:37:43;;;;;;;14.82;5.15;;;20.20;87.10;;;;;;7406789;19;20011;-76
2023/05/08 10:40:15;;;;;;;11.75;4.80;;;20.30;86.30;;;;;;7383406;19;20011;-76
2023/05/08 10:42:47;;;;;;;14.52;6.05;;;20.50;86.60;;;;;;7382476;19;20016;-76
2023/05/08 10:45:16;;;;;;;11.02;5.18;;;20.50;87.60;;;;;;7382588;19;20028;-76
2023/05/08 10:47:52;;;;;;;11.10;5.15;;;20.50;88.30;;;;;;7383092;19;20019;-77
2023/05/08 10:50:37;;;;;;;12.82;5.22;;;20.60;87.80;;;;;;7384590;19;20058;-77
2023/05/08 10:53:13;;;;;;;8.63;4.63;;;20.60;87.00;;;;;;7386691;19;20011;-77
2023/05/08 10:55:49;;;;;;;7.53;4.43;;;20.60;86.80;;;;;;7406320;19;20011;-79
2023/05/08 10:58:32;;;;;;;10.93;4.95;;;20.60;87.40;;;;;;7386269;19;19999;-79
2023/05/08 11:01:30;;;;;;;9.27;4.55;;;20.70;87.10;;;;;;7385569;19;20031;-78
2023/05/08 11:03:59;;;;;;;8.50;4.55;;;20.70;87.50;;;;;;7380000;19;20015;-76
2023/05/08 11:06:47;;;;;;;12.90;4.53;;;20.90;86.50;;;;;;7380429;19;20024;-76
2023/05/08 11:09:23;;;;;;;13.52;4.93;;;20.80;86.60;;;;;;7380036;19;20010;-75
2023/05/08 11:12:14;;;;;;;6.95;4.63;;;20.80;87.10;;;;;;7379990;19;20007;-75
2023/05/08 11:14:54;;;;;;;12.63;4.80;;;20.80;87.40;;;;;;7379444;19;20003;-76
2023/05/08 11:17:25;;;;;;;7.40;4.07;;;20.80;87.40;;;;;;7377518;19;20079;-76
2023/05/08 11:19:59;;;;;;;9.10;4.25;;;20.80;87.80;;;;;;7401695;19;20419;-77
2023/05/08 11:22:31;;;;;;;10.20;5.00;;;20.90;87.40;;;;;;7379835;19;20013;-77
2023/05/08 11:25:02;;;;;;;11.27;5.05;;;21.00;86.30;;;;;;7378897;19;20036;-76
2023/05/08 11:28:06;;;;;;;11.00;4.88;;;21.10;85.90;;;;;;7381870;19;20486;-76
2023/05/08 11:30:41;;;;;;;8.38;4.45;;;21.10;85.70;;;;;;7379216;19;20010;-78
2023/05/08 11:33:17;;;;;;;8.57;4.38;;;21.00;85.20;;;;;;7379143;19;20020;-77
2023/05/08 11:35:51;;;;;;;8.60;4.32;;;21.00;84.90;;;;;;7379089;19;20074;-74
2023/05/08 11:38:22;;;;;;;10.75;4.65;;;20.90;86.10;;;;;;7379886;19;20062;-75
2023/05/08 11:40:56;;;;;;;12.45;4.85;;;20.90;86.20;;;;;;7402166;19;20020;-76
2023/05/08 11:43:40;;;;;;;10.10;4.72;;;20.80;86.30;;;;;;7385596;19;20024;-75
2023/05/08 11:46:16;;;;;;;11.45;4.65;;;20.70;86.60;;;;;;7387241;19;20098;-76
2023/05/08 11:48:45;;;;;;;8.05;4.07;;;20.40;87.70;;;;;;7387961;19;20093;-75
2023/05/08 11:51:15;;;;;;;11.80;4.45;;;20.40;87.90;;;;;;7381260;19;20070;-75
2023/05/08 11:53:46;;;;;;;11.75;4.90;;;20.50;88.10;;;;;;7381917;19;20035;-76
2023/05/08 11:56:15;;;;;;;11.57;5.57;;;20.60;87.20;;;;;;7381295;19;20031;-75
2023/05/08 11:58:43;;;;;;;9.55;4.22;;;20.60;87.70;;;;;;7403417;19;20003;-75
2023/05/08 12:01:21;;;;;;;6.60;4.28;;;20.60;86.60;;;;;;7382714;19;20098;-76
2023/05/08 12:03:50;;;;;;;9.48;4.50;;;20.60;86.80;;;;;;7386402;19;20010;-76
2023/05/08 12:06:22;;;;;;;13.75;3.97;;;20.40;87.30;;;;;;7385869;19;20019;-76
2023/05/08 12:08:51;;;;;;;6.97;3.95;;;20.50;88.00;;;;;;7383815;19;20409;-76
2023/05/08 12:11:25;;;;;;;10.65;3.97;;;20.60;87.70;;;;;;7381325;19;20007;-75
2023/05/08 12:13:55;;;;;;;7.05;4.22;;;20.70;88.30;;;;;;7403672;19;20009;-75
2023/05/08 12:16:29;;;;;;;8.27;3.35;;;20.80;87.10;;;;;;7382264;19;20024;-76
2023/05/08 12:18:58;;;;;;;9.85;4.72;;;21.00;88.10;;;;;;7381490;19;19999;-76
2023/05/08 12:21:30;;;;;;;9.10;3.95;;;21.30;88.40;;;;;;7381262;19;20060;-73
2023/05/08 12:23:59;;;;;;;9.15;3.97;;;21.40;86.70;;;;;;7381539;19;20007;-76
2023/05/08 12:26:28;;;;;;;10.38;4.35;;;21.60;84.50;;;;;;7381044;19;20063;-76
2023/05/08 12:29:00;;;;;;;5.40;3.63;;;21.60;85.00;;;;;;7402476;19;20010;-74
2023/05/08 12:31:32;;;;;;;8.20;3.22;;;21.70;85.10;;;;;;7380626;19;20006;-75
2023/05/08 12:34:00;;;;;;;7.47;3.00;;;21.90;83.00;;;;;;7380221;19;20421;-76
2023/05/08 12:36:29;;;;;;;4.38;2.80;;;22.10;81.80;;;;;;7380530;19;19998;-75
2023/05/08 12:39:11;;;;;;;4.15;2.80;;;22.00;81.70;;;;;;7379662;19;20240;-75
2023/05/08 12:41:45;;;;;;;3.97;2.60;;;21.90;82.40;;;;;;7381527;19;20031;-75
2023/05/08 12:44:21;;;;;;;4.32;2.50;;;21.90;81.90;;;;;;7380055;19;20010;-76
2023/05/08 12:46:56;;;;;;;4.35;2.92;;;21.80;81.70;;;;;;7399374;19;20480;-75
2023/05/08 12:49:27;;;;;;;6.32;3.05;;;21.80;82.90;;;;;;7380770;19;20006;-75
2023/05/08 12:52:02;;;;;;;;;;;21.80;83.30;;;;;;7380349;19;20094;-75
2023/05/08 12:54:35;;;;;;;4.38;2.83;;;21.70;83.20;;;;;;7379199;19;19939;-75
2023/05/08 12:57:11;;;;;;;5.43;3.13;;;21.80;82.60;;;;;;7379106;19;20010;-75
2023/05/08 12:59:39;;;;;;;6.10;3.00;;;21.80;83.20;;;;;;7378805;19;20274;-75